Skip Navigation LinksHome page > Weather > Current weather Skip Navigation Links

Current Weather

Somerset, Somerville, N.J.

For information only: do not use for flight planning or navigation.
Latest weather
Observation time Friday, August 14, 2020 12:53 PM EDT
Local time Friday, August 14, 2020 1:03 PM EDT
Flight conditions Visual Meteorological Conditions
Winds
Wind direction Northeast (50°)
Wind speed 8 mph
Visibility 10 mi.
Sky condition
Ceiling unlimited
Sky clear
Temperature 87°F
Dewpoint 67°F
Altimeter 29.98 in.Hg
Derived measurements
Relative humidity 51%
Heat index 90°F
Density altitude 2130 ft.
Sea-level pressure 29.98 in.Hg
Remarks
Fully automated report.
Automated weather observing station with precipitation discriminator.
METAR KSMQ 141653Z AUTO 05007KT 10SM CLR 31/19 A2998 RMK AO2 SLP151 T03060194

Settings

Location code

InnerDrive.Weather 4.0.6770.0 Release CLR 4.0.30319.42000
Copyright ©2018 Inner Drive Technology. All rights reserved. Portions Copyright ©1986-2018 David Braverman.

Find weather

Site navigation


Skip Navigation Links

Place info

Page info

PayPal - The safer, easier way to pay online!

Return home.

Copyright ©2020 Inner Drive Technology. Purveyors of fine, hand-crafted computer software. Page printed 2020-08-14T17:03:16 UTC.